Seavoyager — 9HUM8 — position and weather

sailwx.info

Track history (hours):
 
Tides and Currents Weather Stations Pressure Air Temp Water Temp Dewpoint Dewpoint Depression Visibility Wind Speed Wind Dir Waves Ship Positions

Seavoyager

Last reported at 2015-Jan-23 19:29 UTC. Time now 2015-Jan-31 08:34 UTC.
Position N 09°45' W 016°44'.

Length 273 m; draft 14.5 m.

Type: Ship (hazmat cat A). MMSI: 256439000.

Date/timePositionNaut miles runAvg speedWind from/ knotsBaromVisibWave heightAir tempDewpointWater temp
2015-Jan-23 19:29N 09°45' W 016°44'1213.0
2015-Jan-23 18:34N 09°37' W 016°35'1313.1
2015-Jan-23 17:34N 09°28' W 016°25'6712.7
2015-Jan-23 12:20N 08°43' W 015°36'1012.7
2015-Jan-23 11:34N 08°36' W 015°29'1313.0
2015-Jan-23 10:33N 08°27' W 015°19'1312.8
2015-Jan-23 09:34N 08°19' W 015°10'1312.8
2015-Jan-23 08:34N 08°10' W 015°00'1413.3
2015-Jan-23 07:29N 08°00' W 014°50'1213.1
2015-Jan-23 06:34N 07°52' W 014°41'  
Track history (hours):
 
Tides and Currents Weather Stations Pressure Air Temp Water Temp Dewpoint Dewpoint Depression Visibility Wind Speed Wind Dir Waves Ship Positions

Seavoyager

Last reported at 2015-Jan-23 19:29 UTC. Time now 2015-Jan-31 08:34 UTC.
Position N 09°45' W 016°44'.

Length 273 m; draft 14.5 m.

Type: Ship (hazmat cat A). MMSI: 256439000.

Date/timePositionNaut miles runAvg speedWind from/ knotsBaromVisibWave heightAir tempDewpointWater temp
2015-Jan-23 19:29N 09°45' W 016°44'1213.0
2015-Jan-23 18:34N 09°37' W 016°35'1313.1
2015-Jan-23 17:34N 09°28' W 016°25'6712.7
2015-Jan-23 12:20N 08°43' W 015°36'1012.7
2015-Jan-23 11:34N 08°36' W 015°29'1313.0
2015-Jan-23 10:33N 08°27' W 015°19'1312.8
2015-Jan-23 09:34N 08°19' W 015°10'1312.8
2015-Jan-23 08:34N 08°10' W 015°00'1413.3
2015-Jan-23 07:29N 08°00' W 014°50'1213.1
2015-Jan-23 06:34N 07°52' W 014°41'  

Dump ship's entire track history